Monday, October 23, 2017, 12:22 PM CDT
Back to Local

KHYS, Hays, Hays Regional Airport

Location: Hays, KS, United States Lat: 38.85
Local Time: 12:22 PM CDT (17:22 GMT) Lon: -99.267
Time Zone: US/Central Elev: 1998 ft

Show me the last for .
Show Decoded

2017-10-23 11:56 METAR KHYS 231656Z AUTO 34024G30KT 10SM CLR 18/M02 A3020 RMK AO2 PK WND
                 34038/1607 SLP225 T01831017 =
2017-10-23 10:56 METAR KHYS 231556Z AUTO 35021G32KT 10SM CLR 16/M01 A3020 RMK AO2 PK WND
                 35032/1547 SLP226 T01561006 =
2017-10-23 09:56 METAR KHYS 231456Z AUTO 34018G24KT 10SM CLR 15/02 A3018 RMK AO2 PK WND
                 35027/1420 SLP218 T01500017 51043 =
2017-10-23 08:56 METAR KHYS 231356Z AUTO 34021G25KT 10SM CLR 14/03 A3014 RMK AO2 PK WND
                 35029/1303 SLP205 T01440033 =
2017-10-23 07:56 METAR KHYS 231256Z AUTO 35017G29KT 10SM CLR 14/03 A3009 RMK AO2 PK WND
                 35029/1247 SLP188 T01390028 =
2017-10-23 06:56 METAR KHYS 231156Z AUTO 34019G26KT 10SM CLR 14/02 A3004 RMK AO2 PK WND
                 35026/1154 SLP169 T01390017 10139 20056 53022 =
2017-10-23 05:56 METAR KHYS 231056Z AUTO 31014KT 10SM CLR 11/01 A2999 RMK AO2 SLP150 T01110006 =
2017-10-23 04:56 METAR KHYS 230956Z AUTO 27007KT 10SM CLR 06/M01 A2997 RMK AO2 SLP146 T00611006 =
2017-10-23 03:56 METAR KHYS 230856Z AUTO 25007KT 10SM CLR 06/00 A2998 RMK AO2 SLP148 T00560000
                 58010 =
2017-10-23 02:56 METAR KHYS 230756Z AUTO 28005KT 10SM CLR 08/M01 A3000 RMK AO2 SLP155 T00781011 =
2017-10-23 01:56 METAR KHYS 230656Z AUTO 27004KT 10SM CLR 09/M01 A3000 RMK AO2 SLP157 T00891011 =
2017-10-23 00:56 METAR KHYS 230556Z AUTO 24004KT 10SM CLR 09/M02 A3001 RMK AO2 SLP158 T00891017
                 10172 20078 402221011 58011 =
2017-10-22 23:56 METAR KHYS 230456Z AUTO 21003KT 10SM CLR 09/M02 A3002 RMK AO2 SLP166 T00891017 =
2017-10-22 22:56 METAR KHYS 230356Z AUTO 21008KT 10SM CLR 10/M02 A3003 RMK AO2 SLP169 T01001017 =
2017-10-22 21:56 METAR KHYS 230256Z AUTO 19006KT 10SM CLR 11/M02 A3004 RMK AO2 SLP176 T01111022
                 56004 =
2017-10-22 20:56 METAR KHYS 230156Z AUTO 17005KT 10SM CLR 11/M02 A3005 RMK AO2 SLP183 T01061017 =
2017-10-22 19:56 METAR KHYS 230056Z AUTO 17007KT 10SM CLR 12/M02 A3005 RMK AO2 SLP184 T01171017 =
2017-10-22 18:56 METAR KHYS 222356Z AUTO 20006KT 10SM CLR 17/M04 A3006 RMK AO2 SLP183 T01721044
                 10222 20172 55007 =
2017-10-22 17:56 METAR KHYS 222256Z AUTO 22008KT 10SM CLR 21/M04 A3005 RMK AO2 SLP177 T02061039 =
2017-10-22 16:56 METAR KHYS 222156Z AUTO 24009KT 10SM CLR 22/M06 A3007 RMK AO2 SLP181 T02221056 =
2017-10-22 15:56 METAR KHYS 222056Z AUTO 28010G17KT 10SM CLR 22/M06 A3008 RMK AO2 SLP184
                 T02221056 56031 =
2017-10-22 13:56 METAR KHYS 221856Z AUTO 24010KT 10SM CLR 20/M04 A3014 RMK AO2 SLP206 T02001044 =
2017-10-22 12:56 METAR KHYS 221756Z AUTO 29012KT 10SM CLR 19/M05 A3018 RMK AO2 SLP219 T01941050
                 10194 21011 58008 =

Support USWX by starting your Amazon purchase here.